Time;durP1;ratioP1;P1;durP2;ratioP2;P2;SDS_P1;SDS_P2;PMS_P1;PMS_P2;Temp;Humidity;BMP_temperature;BMP_pressure;BME280_temperature;BME280_humidity;BME280_pressure;Samples;Min_cycle;Max_cycle;Signal;HPM_P1;HPM_P2
2022/04/25 00:00:40;;;;;;;10.00;7.10;;;;;;;;;;5064259;28;20107;-74
2022/04/25 00:03:05;;;;;;;10.88;7.72;;;;;;;;;;5044658;28;20032;-72
2022/04/25 00:05:30;;;;;;;13.02;8.30;;;;;;;;;;5050470;28;20352;-74
2022/04/25 00:07:56;;;;;;;12.60;7.95;;;;;;;;;;5061561;28;20013;-73
2022/04/25 00:10:21;;;;;;;12.10;7.47;;;;;;;;;;5060060;28;20032;-74
2022/04/25 00:12:47;;;;;;;12.35;7.88;;;;;;;;;;5062181;28;20032;-75
2022/04/25 00:15:12;;;;;;;11.30;7.53;;;;;;;;;;5061253;28;20294;-74
2022/04/25 00:17:37;;;;;;;9.77;7.45;;;;;;;;;;5053368;28;20090;-73
2022/04/25 00:20:04;;;;;;;12.35;7.70;;;;;;;;;;5037843;28;20552;-73
2022/04/25 00:22:29;;;;;;;13.35;8.00;;;;;;;;;;5046361;28;20463;-73
2022/04/25 00:24:56;;;;;;;13.75;8.27;;;;;;;;;;5062920;28;20044;-74
2022/04/25 00:27:22;;;;;;;13.65;8.13;;;;;;;;;;5044806;28;20059;-74
2022/04/25 00:29:47;;;;;;;13.80;8.38;;;;;;;;;;5062890;28;20061;-74
2022/04/25 00:32:12;;;;;;;14.80;8.63;;;;;;;;;;5063190;28;20191;-73
2022/04/25 00:34:37;;;;;;;10.90;7.50;;;;;;;;;;5053642;28;20072;-74
2022/04/25 00:37:03;;;;;;;11.30;7.55;;;;;;;;;;5041265;28;20029;-73
2022/04/25 00:39:28;;;;;;;12.25;8.20;;;;;;;;;;5041179;28;20513;-73
2022/04/25 00:41:55;;;;;;;13.65;8.38;;;;;;;;;;5024638;28;20017;-74
2022/04/25 00:44:21;;;;;;;10.20;7.43;;;;;;;;;;5042076;28;20559;-74
2022/04/25 00:46:48;;;;;;;12.13;8.05;;;;;;;;;;5043759;28;20121;-73
2022/04/25 00:49:14;;;;;;;13.57;8.38;;;;;;;;;;5041213;28;20146;-73
2022/04/25 00:51:40;;;;;;;12.52;7.70;;;;;;;;;;5045746;28;20028;-73
2022/04/25 00:54:05;;;;;;;13.65;7.60;;;;;;;;;;5045034;28;20024;-73
2022/04/25 00:56:31;;;;;;;11.25;7.93;;;;;;;;;;5053745;28;20032;-75
2022/04/25 00:58:57;;;;;;;11.05;7.93;;;;;;;;;;5063385;28;20099;-74
2022/04/25 01:01:24;;;;;;;11.82;8.45;;;;;;;;;;5045082;28;20032;-74
2022/04/25 01:03:49;;;;;;;12.63;8.27;;;;;;;;;;5057870;28;20103;-72
2022/04/25 01:06:15;;;;;;;11.90;8.77;;;;;;;;;;5059888;28;20346;-73
2022/04/25 01:08:40;;;;;;;12.88;8.18;;;;;;;;;;5056103;28;20029;-73
2022/04/25 01:11:05;;;;;;;13.38;8.30;;;;;;;;;;5039274;28;20483;-74
2022/04/25 01:13:31;;;;;;;9.70;7.40;;;;;;;;;;5047625;28;20048;-73
2022/04/25 01:15:56;;;;;;;13.32;7.60;;;;;;;;;;5062676;28;20358;-74
2022/04/25 01:18:21;;;;;;;11.52;7.53;;;;;;;;;;5040451;28;20177;-74
2022/04/25 01:20:46;;;;;;;13.23;7.90;;;;;;;;;;5058174;28;20415;-74
2022/04/25 01:28:48;;;;;;;11.63;7.88;;;;;;;;;;5042491;28;20028;-74
2022/04/25 01:31:13;;;;;;;11.02;7.15;;;;;;;;;;5047793;28;20072;-73
2022/04/25 01:33:39;;;;;;;10.75;8.38;;;;;;;;;;5045529;28;20024;-73
2022/04/25 01:36:04;;;;;;;16.20;8.85;;;;;;;;;;5060040;28;20025;-75
2022/04/25 01:38:30;;;;;;;10.88;8.00;;;;;;;;;;5046890;28;20277;-73
2022/04/25 01:40:56;;;;;;;12.38;8.07;;;;;;;;;;5044841;28;20028;-74
2022/04/25 01:43:21;;;;;;;10.40;7.45;;;;;;;;;;5043414;28;20135;-74
2022/04/25 01:45:46;;;;;;;10.65;7.93;;;;;;;;;;5053235;28;20518;-73
2022/04/25 01:48:11;;;;;;;10.98;8.63;;;;;;;;;;5062362;28;20071;-74
2022/04/25 01:50:36;;;;;;;11.38;7.53;;;;;;;;;;5064866;28;20029;-74
2022/04/25 01:53:03;;;;;;;13.85;8.48;;;;;;;;;;5065147;28;20036;-74
2022/04/25 01:55:29;;;;;;;13.10;8.45;;;;;;;;;;5047667;28;20025;-74
2022/04/25 01:57:54;;;;;;;15.57;9.20;;;;;;;;;;5067369;28;20016;-73
2022/04/25 02:00:19;;;;;;;13.05;8.40;;;;;;;;;;5068800;28;20028;-74
2022/04/25 02:02:45;;;;;;;14.32;8.32;;;;;;;;;;5068426;28;20024;-74
2022/04/25 02:05:10;;;;;;;13.50;8.40;;;;;;;;;;5054449;28;20023;-72
2022/04/25 02:07:35;;;;;;;12.73;9.10;;;;;;;;;;5047250;28;20017;-73
2022/04/25 02:10:00;;;;;;;14.40;8.48;;;;;;;;;;5044512;28;20049;-73
2022/04/25 02:12:26;;;;;;;14.57;8.65;;;;;;;;;;5043587;28;20043;-73
2022/04/25 02:14:51;;;;;;;11.88;8.38;;;;;;;;;;5027963;28;20079;-74
2022/04/25 02:17:16;;;;;;;12.30;8.52;;;;;;;;;;5044978;28;20288;-73
2022/04/25 02:19:44;;;;;;;11.90;9.02;;;;;;;;;;5047568;28;20278;-74
2022/04/25 02:22:10;;;;;;;13.35;8.93;;;;;;;;;;5047448;28;20040;-73
2022/04/25 02:24:35;;;;;;;13.52;9.18;;;;;;;;;;5064462;28;20020;-73
2022/04/25 02:27:03;;;;;;;11.63;8.60;;;;;;;;;;5057955;28;20384;-74
2022/04/25 02:29:28;;;;;;;14.45;8.98;;;;;;;;;;5064228;28;20525;-75
2022/04/25 02:31:54;;;;;;;15.45;8.82;;;;;;;;;;5058869;28;20029;-74
2022/04/25 02:34:21;;;;;;;15.57;9.10;;;;;;;;;;5043912;28;20021;-73
2022/04/25 02:36:46;;;;;;;14.10;9.00;;;;;;;;;;5040670;28;20033;-73
2022/04/25 02:39:12;;;;;;;14.57;8.32;;;;;;;;;;5042349;28;20114;-73
2022/04/25 02:41:37;;;;;;;13.75;8.60;;;;;;;;;;5057174;28;20112;-74
2022/04/25 02:44:02;;;;;;;14.25;8.60;;;;;;;;;;5062382;28;20024;-72
2022/04/25 02:46:28;;;;;;;14.82;8.82;;;;;;;;;;5037257;28;20232;-73
2022/04/25 02:48:53;;;;;;;11.77;8.27;;;;;;;;;;5045917;28;20103;-73
2022/04/25 02:51:18;;;;;;;16.52;9.20;;;;;;;;;;5064272;28;20040;-73
2022/04/25 02:53:44;;;;;;;12.18;8.57;;;;;;;;;;5065363;28;20028;-74
2022/04/25 02:56:10;;;;;;;12.70;8.35;;;;;;;;;;5062363;28;20028;-74
2022/04/25 02:58:38;;;;;;;12.70;8.82;;;;;;;;;;5055568;28;20024;-74
2022/04/25 03:01:06;;;;;;;14.90;8.52;;;;;;;;;;5052345;28;20046;-73
2022/04/25 03:03:32;;;;;;;13.40;8.13;;;;;;;;;;5042170;28;20185;-73
2022/04/25 03:05:58;;;;;;;13.10;8.57;;;;;;;;;;5057780;28;20025;-74
2022/04/25 03:08:24;;;;;;;12.80;8.38;;;;;;;;;;5060992;28;20399;-73
2022/04/25 03:10:54;;;;;;;13.98;8.35;;;;;;;;;;5046066;28;20017;-73
2022/04/25 03:13:20;;;;;;;18.15;8.32;;;;;;;;;;5044307;28;20495;-74
2022/04/25 03:15:49;;;;;;;12.75;7.93;;;;;;;;;;5028014;28;20048;-74
2022/04/25 03:18:15;;;;;;;12.32;8.32;;;;;;;;;;5043316;28;20021;-73
2022/04/25 03:20:44;;;;;;;13.02;7.97;;;;;;;;;;5052482;28;20243;-72
2022/04/25 03:23:11;;;;;;;14.13;8.57;;;;;;;;;;5064386;28;20085;-74
2022/04/25 03:25:37;;;;;;;14.30;8.07;;;;;;;;;;5058755;28;20020;-73
2022/04/25 03:28:03;;;;;;;13.20;7.57;;;;;;;;;;5024285;28;20017;-75
2022/04/25 03:30:28;;;;;;;12.95;8.20;;;;;;;;;;5045953;28;20029;-74
2022/04/25 03:32:54;;;;;;;12.82;7.80;;;;;;;;;;5044530;28;20091;-73
2022/04/25 03:35:19;;;;;;;12.85;8.23;;;;;;;;;;5040816;28;20025;-73
2022/04/25 03:37:46;;;;;;;14.63;8.45;;;;;;;;;;5044705;28;20017;-73
2022/04/25 03:40:12;;;;;;;16.75;8.18;;;;;;;;;;5057406;28;20099;-74
2022/04/25 03:42:39;;;;;;;15.52;8.85;;;;;;;;;;5044053;28;20029;-74
2022/04/25 03:45:04;;;;;;;15.75;9.55;;;;;;;;;;5062623;28;20542;-73
2022/04/25 03:47:29;;;;;;;13.32;8.30;;;;;;;;;;5061209;28;20171;-73
2022/04/25 03:49:55;;;;;;;15.32;9.40;;;;;;;;;;5061391;28;20024;-73
2022/04/25 03:52:23;;;;;;;17.42;9.25;;;;;;;;;;5054503;28;20372;-75
2022/04/25 03:57:32;;;;;;;16.00;9.90;;;;;;;;;;5041123;28;20055;-74
2022/04/25 03:59:58;;;;;;;13.63;9.57;;;;;;;;;;5057502;28;20036;-73
2022/04/25 04:02:23;;;;;;;19.10;10.75;;;;;;;;;;5066099;28;20024;-73
2022/04/25 04:04:49;;;;;;;17.00;10.13;;;;;;;;;;5067020;28;20154;-74
2022/04/25 04:07:16;;;;;;;17.55;9.95;;;;;;;;;;5048145;28;20027;-73
2022/04/25 04:09:47;;;;;;;18.63;10.10;;;;;;;;;;5067702;28;20396;-75
2022/04/25 04:12:17;;;;;;;15.90;9.88;;;;;;;;;;5047625;28;20043;-73
2022/04/25 04:14:43;;;;;;;16.92;10.43;;;;;;;;;;5062363;28;20063;-73
2022/04/25 04:17:08;;;;;;;15.68;10.32;;;;;;;;;;5043591;28;20021;-73
2022/04/25 04:19:37;;;;;;;18.17;11.70;;;;;;;;;;5060904;28;20475;-75
2022/04/25 04:22:04;;;;;;;16.45;10.43;;;;;;;;;;5045230;28;20025;-73
2022/04/25 04:24:31;;;;;;;16.30;10.15;;;;;;;;;;5038075;28;20024;-73
2022/04/25 04:26:56;;;;;;;20.40;10.93;;;;;;;;;;5039996;28;20116;-73
2022/04/25 04:29:22;;;;;;;17.90;11.45;;;;;;;;;;5041877;28;20150;-73
2022/04/25 04:31:48;;;;;;;16.50;10.85;;;;;;;;;;5052747;28;20025;-74
2022/04/25 04:34:13;;;;;;;21.88;11.82;;;;;;;;;;5040063;28;20040;-74
2022/04/25 04:36:38;;;;;;;16.58;11.05;;;;;;;;;;5044260;28;20036;-72
2022/04/25 04:39:04;;;;;;;19.88;10.65;;;;;;;;;;5047034;28;20029;-74
2022/04/25 04:41:29;;;;;;;17.00;11.43;;;;;;;;;;5027581;28;20035;-74
2022/04/25 04:43:57;;;;;;;17.98;11.27;;;;;;;;;;5056535;28;20040;-74
2022/04/25 04:46:23;;;;;;;19.27;11.13;;;;;;;;;;5031746;28;20049;-74
2022/04/25 04:48:49;;;;;;;19.25;10.98;;;;;;;;;;5053690;28;20430;-75
2022/04/25 04:51:14;;;;;;;16.92;11.82;;;;;;;;;;5057119;28;20020;-74
2022/04/25 04:53:39;;;;;;;17.95;11.65;;;;;;;;;;5058603;28;20032;-75
2022/04/25 04:56:05;;;;;;;16.48;11.43;;;;;;;;;;5045945;28;20032;-75
2022/04/25 04:58:30;;;;;;;16.08;11.15;;;;;;;;;;5039806;28;20108;-73
2022/04/25 05:00:55;;;;;;;17.30;11.07;;;;;;;;;;5034397;28;20048;-73
2022/04/25 05:03:25;;;;;;;19.35;11.30;;;;;;;;;;5056636;28;20415;-72
2022/04/25 05:05:54;;;;;;;17.85;11.65;;;;;;;;;;5032658;28;20021;-73
2022/04/25 05:08:19;;;;;;;17.63;11.38;;;;;;;;;;5044806;28;20535;-74
2022/04/25 05:10:45;;;;;;;17.63;11.55;;;;;;;;;;5042115;28;20258;-74
2022/04/25 05:13:11;;;;;;;15.32;11.02;;;;;;;;;;5048610;28;20399;-73
2022/04/25 05:15:36;;;;;;;16.35;11.60;;;;;;;;;;5022403;28;20063;-73
2022/04/25 05:18:01;;;;;;;19.23;10.63;;;;;;;;;;5046257;28;20060;-74
2022/04/25 05:20:27;;;;;;;21.17;12.30;;;;;;;;;;5039222;28;20067;-74
2022/04/25 05:22:52;;;;;;;20.42;11.93;;;;;;;;;;5052747;28;20013;-74
2022/04/25 05:25:19;;;;;;;17.25;11.45;;;;;;;;;;5039833;28;20455;-74
2022/04/25 05:27:48;;;;;;;15.77;10.63;;;;;;;;;;5037806;28;20499;-74
2022/04/25 05:30:14;;;;;;;17.48;11.75;;;;;;;;;;5043656;28;20059;-75
2022/04/25 05:32:47;;;;;;;22.35;10.90;;;;;;;;;;5041399;28;20044;-74
2022/04/25 05:35:13;;;;;;;23.20;11.77;;;;;;;;;;5060414;28;20036;-75
2022/04/25 05:37:38;;;;;;;18.27;11.00;;;;;;;;;;5061677;28;20409;-74
2022/04/25 05:40:04;;;;;;;17.58;10.45;;;;;;;;;;5029888;28;20033;-75
2022/04/25 05:42:30;;;;;;;18.98;11.57;;;;;;;;;;5038442;28;20021;-74
2022/04/25 05:44:55;;;;;;;18.95;11.15;;;;;;;;;;5056333;28;20466;-74
2022/04/25 05:47:21;;;;;;;17.08;11.73;;;;;;;;;;5050029;28;20103;-74
2022/04/25 05:52:30;;;;;;;15.65;11.07;;;;;;;;;;5060879;28;20046;-74
2022/04/25 05:54:55;;;;;;;17.27;11.77;;;;;;;;;;5028581;28;20024;-73
2022/04/25 05:57:22;;;;;;;18.48;11.43;;;;;;;;;;5048581;28;20025;-74
2022/04/25 05:59:47;;;;;;;16.38;11.40;;;;;;;;;;5043302;28;20086;-74
2022/04/25 06:02:15;;;;;;;21.60;11.55;;;;;;;;;;5062341;28;20025;-73
2022/04/25 06:04:41;;;;;;;19.33;11.27;;;;;;;;;;5058940;28;20436;-75
2022/04/25 06:07:06;;;;;;;16.65;12.10;;;;;;;;;;5062474;28;20039;-74
2022/04/25 06:09:31;;;;;;;19.73;12.77;;;;;;;;;;5041480;28;20463;-74
2022/04/25 06:11:57;;;;;;;20.55;13.02;;;;;;;;;;5059865;28;20427;-74
2022/04/25 06:14:22;;;;;;;17.80;12.98;;;;;;;;;;5042460;28;20106;-75
2022/04/25 06:16:48;;;;;;;19.98;13.30;;;;;;;;;;5033989;28;20071;-73
2022/04/25 06:19:13;;;;;;;19.38;12.82;;;;;;;;;;5035612;28;20025;-75
2022/04/25 06:21:39;;;;;;;21.30;14.27;;;;;;;;;;5046900;28;20124;-76
2022/04/25 06:24:04;;;;;;;20.90;14.30;;;;;;;;;;5046124;28;20025;-76
2022/04/25 06:26:30;;;;;;;18.75;13.75;;;;;;;;;;5045558;28;20074;-75
2022/04/25 06:28:56;;;;;;;19.77;15.45;;;;;;;;;;5030962;28;20029;-77
2022/04/25 06:31:23;;;;;;;22.20;15.10;;;;;;;;;;5047914;28;20051;-75
2022/04/25 06:33:48;;;;;;;21.48;15.57;;;;;;;;;;5041617;28;20056;-77
2022/04/25 06:36:13;;;;;;;25.30;16.75;;;;;;;;;;5059134;28;20056;-75
2022/04/25 06:38:38;;;;;;;19.83;15.77;;;;;;;;;;5059563;28;20070;-75
2022/04/25 06:41:04;;;;;;;21.60;15.60;;;;;;;;;;5060025;28;20121;-75
2022/04/25 06:43:31;;;;;;;22.80;16.67;;;;;;;;;;5028184;28;20028;-74
2022/04/25 06:45:57;;;;;;;20.98;16.38;;;;;;;;;;5027409;28;20119;-75
2022/04/25 06:48:22;;;;;;;25.63;18.38;;;;;;;;;;5045320;28;20104;-74
2022/04/25 06:50:48;;;;;;;24.98;17.25;;;;;;;;;;5052521;28;20476;-75
2022/04/25 06:53:14;;;;;;;25.90;18.00;;;;;;;;;;5063287;28;20459;-76
2022/04/25 06:55:40;;;;;;;22.88;17.00;;;;;;;;;;5062367;28;20020;-75
2022/04/25 06:58:06;;;;;;;21.33;16.63;;;;;;;;;;5046232;28;20028;-75
2022/04/25 07:00:32;;;;;;;23.45;17.60;;;;;;;;;;5047975;28;20040;-75
2022/04/25 07:02:59;;;;;;;23.10;16.95;;;;;;;;;;5028554;28;20071;-75
2022/04/25 07:05:24;;;;;;;25.23;17.52;;;;;;;;;;5041614;28;20020;-75
2022/04/25 07:07:52;;;;;;;24.33;18.10;;;;;;;;;;5050248;28;20079;-75
2022/04/25 07:10:18;;;;;;;27.38;18.50;;;;;;;;;;5062453;28;20314;-76
2022/04/25 07:12:43;;;;;;;25.45;19.63;;;;;;;;;;5050348;28;20111;-75
2022/04/25 07:15:08;;;;;;;25.67;20.35;;;;;;;;;;5042276;28;20041;-74
2022/04/25 07:17:34;;;;;;;25.58;19.92;;;;;;;;;;5045018;28;20070;-76
2022/04/25 07:20:00;;;;;;;28.00;19.70;;;;;;;;;;5023874;28;20490;-75
2022/04/25 07:30:38;;;;;;;24.50;18.40;;;;;;;;;;5064500;28;20039;-76
2022/04/25 07:33:03;;;;;;;25.88;19.75;;;;;;;;;;5064804;28;20017;-76
2022/04/25 07:35:29;;;;;;;24.45;19.48;;;;;;;;;;5044472;28;20032;-75
2022/04/25 07:37:55;;;;;;;27.92;19.83;;;;;;;;;;5044921;28;20032;-76
2022/04/25 07:40:21;;;;;;;26.50;19.58;;;;;;;;;;5041656;28;20128;-77
2022/04/25 07:42:47;;;;;;;23.42;19.45;;;;;;;;;;5041613;28;20100;-75
2022/04/25 07:45:12;;;;;;;21.67;17.67;;;;;;;;;;5045395;28;20099;-75
2022/04/25 07:47:42;;;;;;;26.45;19.15;;;;;;;;;;5027016;28;20029;-75
2022/04/25 07:50:08;;;;;;;24.25;18.58;;;;;;;;;;5043559;28;20151;-75
2022/04/25 07:52:33;;;;;;;27.70;19.75;;;;;;;;;;5044488;28;20515;-74
2022/04/25 07:54:58;;;;;;;22.27;18.73;;;;;;;;;;5041630;28;20021;-74
2022/04/25 07:57:24;;;;;;;27.52;18.88;;;;;;;;;;5042112;28;20498;-75
2022/04/25 07:59:49;;;;;;;23.17;18.55;;;;;;;;;;5024447;28;20505;-75
2022/04/25 08:02:17;;;;;;;27.73;19.52;;;;;;;;;;5045011;28;20483;-75
2022/04/25 08:04:42;;;;;;;23.80;17.75;;;;;;;;;;5023932;28;20033;-75
2022/04/25 08:07:07;;;;;;;24.25;17.60;;;;;;;;;;5045330;28;20021;-74
2022/04/25 08:09:33;;;;;;;26.65;18.45;;;;;;;;;;5039709;28;20032;-74
2022/04/25 08:20:10;;;;;;;19.83;15.30;;;;;;;;;;5062609;28;20047;-74
2022/04/25 08:22:35;;;;;;;19.80;15.60;;;;;;;;;;5049646;28;20033;-74
2022/04/25 08:25:01;;;;;;;19.40;16.13;;;;;;;;;;5038989;28;20467;-75
2022/04/25 08:27:27;;;;;;;20.02;15.60;;;;;;;;;;5043805;28;20199;-76
2022/04/25 08:29:52;;;;;;;23.67;16.42;;;;;;;;;;5057933;28;20203;-75
2022/04/25 08:32:17;;;;;;;21.17;16.42;;;;;;;;;;5039197;28;20110;-76
2022/04/25 08:34:43;;;;;;;19.67;16.95;;;;;;;;;;5043738;28;20092;-75
2022/04/25 08:37:08;;;;;;;20.35;16.73;;;;;;;;;;5044152;28;20029;-76
2022/04/25 08:39:34;;;;;;;23.15;16.77;;;;;;;;;;5042221;28;20103;-76
2022/04/25 08:42:00;;;;;;;19.45;16.70;;;;;;;;;;5023463;28;20292;-75
2022/04/25 08:44:25;;;;;;;19.52;16.13;;;;;;;;;;5044644;28;20029;-75
2022/04/25 08:46:52;;;;;;;25.15;18.27;;;;;;;;;;5043968;28;20032;-77
2022/04/25 08:49:22;;;;;;;23.55;18.40;;;;;;;;;;5045094;28;20029;-76
2022/04/25 08:51:49;;;;;;;22.27;17.42;;;;;;;;;;5041877;28;20407;-75
2022/04/25 08:54:14;;;;;;;27.52;18.48;;;;;;;;;;5042566;28;20021;-77
2022/04/25 08:56:44;;;;;;;21.92;17.02;;;;;;;;;;5043658;28;20048;-74
2022/04/25 08:59:10;;;;;;;24.23;18.38;;;;;;;;;;5043689;28;20059;-75
2022/04/25 09:01:36;;;;;;;23.42;16.20;;;;;;;;;;5043729;28;20013;-75
2022/04/25 09:04:03;;;;;;;23.27;17.15;;;;;;;;;;5044201;28;20029;-76
2022/04/25 09:06:28;;;;;;;23.02;16.88;;;;;;;;;;5055151;28;20021;-76
2022/04/25 09:08:53;;;;;;;24.58;16.15;;;;;;;;;;5053806;28;20021;-75
2022/04/25 09:14:03;;;;;;;21.67;17.70;;;;;;;;;;5046343;28;20415;-76
2022/04/25 09:16:28;;;;;;;24.80;17.90;;;;;;;;;;5062333;28;20045;-75
2022/04/25 09:18:53;;;;;;;19.80;16.65;;;;;;;;;;5049741;28;21384;-78
2022/04/25 09:21:19;;;;;;;20.52;16.50;;;;;;;;;;5040006;28;20033;-76
2022/04/25 09:23:45;;;;;;;21.98;15.95;;;;;;;;;;5022727;28;20029;-76
2022/04/25 09:26:12;;;;;;;18.58;15.70;;;;;;;;;;5034131;28;20419;-76
2022/04/25 09:28:50;;;;;;;23.15;17.38;;;;;;;;;;5063325;28;20107;-73
2022/04/25 09:31:16;;;;;;;24.45;16.88;;;;;;;;;;5062435;28;20028;-73
2022/04/25 09:33:43;;;;;;;23.90;17.55;;;;;;;;;;5062623;28;20016;-75
2022/04/25 09:36:09;;;;;;;22.10;16.38;;;;;;;;;;5033320;28;20036;-74
2022/04/25 09:38:36;;;;;;;20.75;15.25;;;;;;;;;;5040756;28;20028;-74
2022/04/25 09:41:02;;;;;;;21.30;16.42;;;;;;;;;;5024028;28;20059;-74
2022/04/25 09:43:32;;;;;;;21.48;15.80;;;;;;;;;;5045049;28;20017;-73
2022/04/25 09:46:01;;;;;;;23.60;16.58;;;;;;;;;;5042412;28;20452;-73
2022/04/25 09:48:26;;;;;;;19.00;15.80;;;;;;;;;;5041947;28;20069;-73
2022/04/25 09:51:03;;;;;;;20.30;15.68;;;;;;;;;;5039259;28;20139;-73
2022/04/25 09:53:41;;;;;;;21.05;16.52;;;;;;;;;;5040101;28;20588;-73
2022/04/25 09:56:13;;;;;;;22.08;15.30;;;;;;;;;;5044929;28;20035;-74
2022/04/25 09:58:40;;;;;;;18.25;15.57;;;;;;;;;;5047653;28;20484;-74
2022/04/25 10:01:12;;;;;;;17.00;14.32;;;;;;;;;;5045727;28;20465;-73
2022/04/25 10:03:37;;;;;;;17.08;13.77;;;;;;;;;;5047489;28;20472;-73
2022/04/25 10:06:04;;;;;;;21.85;15.63;;;;;;;;;;5041989;28;20025;-74
2022/04/25 10:08:30;;;;;;;20.90;15.43;;;;;;;;;;5044174;28;20526;-74
2022/04/25 10:10:57;;;;;;;22.77;16.08;;;;;;;;;;5062299;28;20469;-72
2022/04/25 10:13:23;;;;;;;21.15;15.75;;;;;;;;;;5064506;28;20024;-73
2022/04/25 10:15:49;;;;;;;18.70;15.35;;;;;;;;;;5066171;28;20037;-73
2022/04/25 10:18:15;;;;;;;19.10;16.20;;;;;;;;;;5048555;28;20413;-73
2022/04/25 10:20:42;;;;;;;19.15;16.08;;;;;;;;;;5064612;28;20033;-74
2022/04/25 10:23:12;;;;;;;16.58;14.85;;;;;;;;;;5064886;28;20265;-73
2022/04/25 10:25:38;;;;;;;20.63;15.40;;;;;;;;;;5049057;28;20048;-74
2022/04/25 10:28:11;;;;;;;19.52;16.35;;;;;;;;;;5062165;28;20048;-72
2022/04/25 10:30:38;;;;;;;20.45;16.92;;;;;;;;;;5066194;28;20024;-73
2022/04/25 10:33:17;;;;;;;19.98;15.60;;;;;;;;;;5052349;28;20502;-73
2022/04/25 10:35:44;;;;;;;21.17;15.77;;;;;;;;;;5045939;28;20030;-73
2022/04/25 10:44:16;;;;;;;20.50;16.67;;;;;;;;;;5045877;28;20127;-73
2022/04/25 10:47:00;;;;;;;19.83;15.52;;;;;;;;;;5045136;28;20051;-73
2022/04/25 10:49:30;;;;;;;20.25;16.15;;;;;;;;;;5044289;28;20021;-72
2022/04/25 10:51:56;;;;;;;18.67;15.23;;;;;;;;;;5045148;28;20660;-74
2022/04/25 10:54:23;;;;;;;21.85;16.40;;;;;;;;;;5041811;28;20120;-73
2022/04/25 10:57:01;;;;;;;18.73;16.35;;;;;;;;;;5043717;28;20021;-73
2022/04/25 10:59:27;;;;;;;21.67;15.77;;;;;;;;;;5045332;28;20063;-73
2022/04/25 11:01:54;;;;;;;18.50;15.60;;;;;;;;;;5044986;28;20047;-73
2022/04/25 11:04:20;;;;;;;21.30;16.50;;;;;;;;;;5045606;28;20028;-72
2022/04/25 11:06:47;;;;;;;20.13;17.10;;;;;;;;;;5044348;28;20636;-71
2022/04/25 11:09:32;;;;;;;18.40;15.50;;;;;;;;;;5024684;28;20032;-72
2022/04/25 11:11:57;;;;;;;17.83;15.93;;;;;;;;;;5042706;28;20020;-72
2022/04/25 11:14:22;;;;;;;24.05;16.50;;;;;;;;;;5043652;28;20029;-72
2022/04/25 11:17:07;;;;;;;18.67;16.10;;;;;;;;;;5054812;28;20143;-71
2022/04/25 11:19:46;;;;;;;18.20;15.43;;;;;;;;;;5064495;28;20051;-71
2022/04/25 11:22:31;;;;;;;18.38;16.40;;;;;;;;;;5054224;28;20370;-72
2022/04/25 11:24:56;;;;;;;19.45;15.27;;;;;;;;;;5041983;28;20021;-73
2022/04/25 11:27:23;;;;;;;22.38;16.05;;;;;;;;;;5042736;28;20391;-72
2022/04/25 11:30:06;;;;;;;20.13;16.00;;;;;;;;;;5044746;28;20035;-71
2022/04/25 11:32:35;;;;;;;22.00;16.20;;;;;;;;;;5046250;28;20075;-72
2022/04/25 11:35:02;;;;;;;20.63;16.58;;;;;;;;;;5043191;28;20013;-74
2022/04/25 11:37:28;;;;;;;22.45;16.27;;;;;;;;;;5045535;28;20067;-72
2022/04/25 11:39:55;;;;;;;20.15;16.85;;;;;;;;;;5049597;28;20025;-73
2022/04/25 11:42:25;;;;;;;20.52;16.55;;;;;;;;;;5063207;28;20521;-73
2022/04/25 11:44:50;;;;;;;20.67;17.38;;;;;;;;;;5065489;28;20205;-72
2022/04/25 11:47:18;;;;;;;21.98;17.75;;;;;;;;;;5063263;28;20702;-72
2022/04/25 11:49:43;;;;;;;24.27;18.65;;;;;;;;;;5058055;28;20456;-72
2022/04/25 11:52:13;;;;;;;25.17;18.92;;;;;;;;;;5045935;28;20124;-73
2022/04/25 11:54:40;;;;;;;25.95;19.67;;;;;;;;;;5042742;28;20318;-72
2022/04/25 11:57:05;;;;;;;24.95;20.25;;;;;;;;;;5042940;28;20463;-72
2022/04/25 11:59:30;;;;;;;25.35;18.85;;;;;;;;;;5044555;28;20040;-72
2022/04/25 12:01:56;;;;;;;25.40;18.17;;;;;;;;;;5044887;28;20078;-73
2022/04/25 12:04:27;;;;;;;21.90;19.25;;;;;;;;;;5044394;28;20098;-73
2022/04/25 12:06:52;;;;;;;23.08;18.10;;;;;;;;;;5045069;28;20072;-73
2022/04/25 12:17:38;;;;;;;21.85;18.48;;;;;;;;;;5060631;28;20070;-72
2022/04/25 12:20:04;;;;;;;;;;;;;;;;;;5061213;28;20103;-72
2022/04/25 12:22:29;;;;;;;21.27;17.60;;;;;;;;;;5063979;28;20023;-72
2022/04/25 12:25:11;;;;;;;22.23;18.02;;;;;;;;;;5051156;28;20063;-72
2022/04/25 12:27:36;;;;;;;24.30;18.67;;;;;;;;;;5039628;28;20054;-74
2022/04/25 12:30:05;;;;;;;20.85;17.85;;;;;;;;;;5040761;28;20503;-73
2022/04/25 12:32:30;;;;;;;23.38;18.98;;;;;;;;;;5043716;28;20033;-73
2022/04/25 12:34:56;;;;;;;23.73;17.73;;;;;;;;;;5039122;28;20017;-72
2022/04/25 12:37:21;;;;;;;21.55;17.05;;;;;;;;;;5053081;28;20036;-72
2022/04/25 12:40:00;;;;;;;21.15;18.33;;;;;;;;;;5059306;28;20025;-73
2022/04/25 12:42:42;;;;;;;25.95;19.92;;;;;;;;;;5041151;28;20467;-73
2022/04/25 12:45:08;;;;;;;21.48;18.63;;;;;;;;;;5041877;28;20464;-72
2022/04/25 12:47:33;;;;;;;24.38;17.75;;;;;;;;;;5060959;28;20027;-73
2022/04/25 12:50:01;;;;;;;20.85;17.50;;;;;;;;;;5061391;28;20255;-72
2022/04/25 12:52:27;;;;;;;17.67;15.85;;;;;;;;;;5031109;28;20017;-73
2022/04/25 12:54:53;;;;;;;20.58;16.52;;;;;;;;;;5047157;28;20048;-73
2022/04/25 12:57:24;;;;;;;17.38;15.48;;;;;;;;;;5050957;28;20225;-73
2022/04/25 12:59:52;;;;;;;21.52;16.90;;;;;;;;;;5060708;28;20028;-72
2022/04/25 13:02:22;;;;;;;21.65;17.35;;;;;;;;;;5045916;28;20483;-72
2022/04/25 13:04:57;;;;;;;22.70;16.67;;;;;;;;;;5040955;28;20386;-73
2022/04/25 13:07:30;;;;;;;20.52;15.40;;;;;;;;;;5041916;28;20118;-72
2022/04/25 13:09:56;;;;;;;;;;;;;;;;;;5039355;28;20024;-72
2022/04/25 13:12:23;;;;;;;20.17;16.23;;;;;;;;;;5039013;28;19916;-73
2022/04/25 13:14:48;;;;;;;21.65;16.40;;;;;;;;;;5041871;28;20032;-72
2022/04/25 13:17:13;;;;;;;19.05;15.35;;;;;;;;;;5044722;28;20345;-72
2022/04/25 13:19:39;;;;;;;20.05;15.85;;;;;;;;;;5061216;28;20037;-72
2022/04/25 13:22:05;;;;;;;20.23;15.90;;;;;;;;;;5061081;28;20360;-73
2022/04/25 13:24:31;;;;;;;21.75;16.75;;;;;;;;;;5062333;28;20487;-72
2022/04/25 13:26:57;;;;;;;24.45;17.23;;;;;;;;;;5045582;28;20025;-73
2022/04/25 13:29:22;;;;;;;19.45;16.63;;;;;;;;;;5064017;28;20028;-73
2022/04/25 13:31:47;;;;;;;22.50;17.38;;;;;;;;;;5067789;28;20051;-73
2022/04/25 13:34:13;;;;;;;20.48;17.30;;;;;;;;;;5048609;28;20363;-71
2022/04/25 13:36:38;;;;;;;21.92;17.13;;;;;;;;;;5066295;28;20028;-73
2022/04/25 13:39:04;;;;;;;20.50;16.10;;;;;;;;;;5066904;28;20454;-72
2022/04/25 13:41:30;;;;;;;19.90;17.10;;;;;;;;;;5063881;28;20055;-71
2022/04/25 13:43:56;;;;;;;19.10;17.10;;;;;;;;;;5066358;28;20045;-73
2022/04/25 13:46:21;;;;;;;19.35;14.38;;;;;;;;;;5064636;28;20024;-71
2022/04/25 13:48:46;;;;;;;17.10;14.48;;;;;;;;;;5066549;28;20024;-73
2022/04/25 13:51:12;;;;;;;17.23;14.30;;;;;;;;;;5061824;28;20425;-73
2022/04/25 13:53:38;;;;;;;18.52;14.35;;;;;;;;;;5045292;28;20017;-72
2022/04/25 13:56:05;;;;;;;16.52;14.20;;;;;;;;;;5044737;28;20160;-73
2022/04/25 13:58:31;;;;;;;15.63;14.02;;;;;;;;;;5045950;28;20111;-71
2022/04/25 14:00:56;;;;;;;14.82;13.13;;;;;;;;;;5046885;28;20120;-72
2022/04/25 14:03:21;;;;;;;15.07;13.30;;;;;;;;;;5041069;28;20327;-71
2022/04/25 14:05:50;;;;;;;16.30;13.88;;;;;;;;;;5038372;28;20027;-72
2022/04/25 14:08:17;;;;;;;14.70;13.02;;;;;;;;;;5054502;28;20016;-72
2022/04/25 14:10:43;;;;;;;16.75;13.48;;;;;;;;;;5030634;28;20052;-71
2022/04/25 14:13:11;;;;;;;16.65;14.80;;;;;;;;;;5061336;28;20030;-72
2022/04/25 14:15:37;;;;;;;15.25;13.63;;;;;;;;;;5049954;28;20091;-72
2022/04/25 14:18:02;;;;;;;18.33;14.05;;;;;;;;;;5044063;28;20383;-73
2022/04/25 14:20:29;;;;;;;17.60;14.65;;;;;;;;;;5053906;28;20029;-73
2022/04/25 14:22:54;;;;;;;17.80;14.77;;;;;;;;;;5044178;28;20107;-72
2022/04/25 14:25:20;;;;;;;17.80;14.63;;;;;;;;;;5041686;28;20025;-71
2022/04/25 14:27:46;;;;;;;16.80;14.60;;;;;;;;;;5042919;28;20021;-71
2022/04/25 14:30:11;;;;;;;16.58;13.93;;;;;;;;;;5042537;28;20017;-70
2022/04/25 14:32:37;;;;;;;19.55;14.30;;;;;;;;;;5029001;28;20444;-71
2022/04/25 14:35:03;;;;;;;17.15;14.20;;;;;;;;;;5042808;28;20108;-73
2022/04/25 14:37:28;;;;;;;16.35;14.55;;;;;;;;;;5043369;28;20067;-72
2022/04/25 14:39:53;;;;;;;16.65;14.48;;;;;;;;;;5042658;28;20037;-70
2022/04/25 14:42:18;;;;;;;19.40;15.75;;;;;;;;;;5043041;28;20423;-71
2022/04/25 14:44:44;;;;;;;18.52;15.38;;;;;;;;;;5047083;28;20048;-73
2022/04/25 14:47:10;;;;;;;19.50;16.20;;;;;;;;;;5064968;28;20043;-72
2022/04/25 14:55:03;;;;;;;21.15;16.48;;;;;;;;;;5063109;28;20027;-72
2022/04/25 14:57:28;;;;;;;20.38;17.13;;;;;;;;;;5050313;28;20037;-72
2022/04/25 14:59:54;;;;;;;18.40;16.48;;;;;;;;;;5043763;28;20031;-71
2022/04/25 15:02:19;;;;;;;18.58;15.68;;;;;;;;;;5026569;28;20451;-72
2022/04/25 15:04:44;;;;;;;20.90;15.80;;;;;;;;;;5041426;28;20468;-72
2022/04/25 15:07:10;;;;;;;19.33;15.80;;;;;;;;;;5043114;28;20024;-71